sensor_id;sensor_type;location;lat;lon;timestamp;temperature;humidity
7028;DHT22;3555;53.248;10.336;2022-10-31T00:01:23;14.10;99.90
7028;DHT22;3555;53.248;10.336;2022-10-31T00:03:51;14.00;99.90
7028;DHT22;3555;53.248;10.336;2022-10-31T00:06:18;14.10;1.00
7028;DHT22;3555;53.248;10.336;2022-10-31T00:08:45;14.00;1.00
7028;DHT22;3555;53.248;10.336;2022-10-31T00:11:12;14.00;1.00
7028;DHT22;3555;53.248;10.336;2022-10-31T00:13:39;14.00;1.00
7028;DHT22;3555;53.248;10.336;2022-10-31T00:16:13;14.00;1.00
7028;DHT22;3555;53.248;10.336;2022-10-31T00:18:40;14.00;1.00
7028;DHT22;3555;53.248;10.336;2022-10-31T00:21:08;14.00;1.00
7028;DHT22;3555;53.248;10.336;2022-10-31T00:23:35;14.00;1.00
7028;DHT22;3555;53.248;10.336;2022-10-31T00:26:02;14.00;1.00
7028;DHT22;3555;53.248;10.336;2022-10-31T00:28:29;14.00;1.00
7028;DHT22;3555;53.248;10.336;2022-10-31T00:30:59;14.00;1.00
7028;DHT22;3555;53.248;10.336;2022-10-31T00:33:26;14.00;1.00
7028;DHT22;3555;53.248;10.336;2022-10-31T00:35:53;14.00;1.00
7028;DHT22;3555;53.248;10.336;2022-10-31T00:38:21;14.00;1.00
7028;DHT22;3555;53.248;10.336;2022-10-31T00:40:48;14.00;73.60
7028;DHT22;3555;53.248;10.336;2022-10-31T00:43:15;14.00;99.90
7028;DHT22;3555;53.248;10.336;2022-10-31T00:45:42;14.00;99.90
7028;DHT22;3555;53.248;10.336;2022-10-31T00:48:09;14.00;99.90
7028;DHT22;3555;53.248;10.336;2022-10-31T00:50:36;14.00;99.90
7028;DHT22;3555;53.248;10.336;2022-10-31T00:53:03;14.10;99.90
7028;DHT22;3555;53.248;10.336;2022-10-31T00:55:31;14.10;99.90
7028;DHT22;3555;53.248;10.336;2022-10-31T00:57:58;14.10;99.90
7028;DHT22;3555;53.248;10.336;2022-10-31T01:00:25;14.10;99.90
7028;DHT22;3555;53.248;10.336;2022-10-31T01:02:52;14.10;99.90
7028;DHT22;3555;53.248;10.336;2022-10-31T01:05:19;14.10;99.90
7028;DHT22;3555;53.248;10.336;2022-10-31T01:07:46;14.20;99.90
7028;DHT22;3555;53.248;10.336;2022-10-31T01:10:13;14.20;99.90
7028;DHT22;3555;53.248;10.336;2022-10-31T01:12:43;14.20;99.90
7028;DHT22;3555;53.248;10.336;2022-10-31T01:15:12;14.20;99.90
7028;DHT22;3555;53.248;10.336;2022-10-31T01:17:40;14.20;99.90
7028;DHT22;3555;53.248;10.336;2022-10-31T01:20:08;14.20;99.90
7028;DHT22;3555;53.248;10.336;2022-10-31T01:22:35;14.10;99.90
7028;DHT22;3555;53.248;10.336;2022-10-31T01:25:02;14.20;99.90
7028;DHT22;3555;53.248;10.336;2022-10-31T01:27:30;14.20;99.90
7028;DHT22;3555;53.248;10.336;2022-10-31T01:29:58;14.20;99.90
7028;DHT22;3555;53.248;10.336;2022-10-31T01:32:26;14.20;99.90
7028;DHT22;3555;53.248;10.336;2022-10-31T01:34:54;14.10;99.90
7028;DHT22;3555;53.248;10.336;2022-10-31T01:37:21;14.10;99.90
7028;DHT22;3555;53.248;10.336;2022-10-31T01:39:48;14.10;99.90
7028;DHT22;3555;53.248;10.336;2022-10-31T01:42:18;14.10;99.90
7028;DHT22;3555;53.248;10.336;2022-10-31T01:44:52;14.10;99.90
7028;DHT22;3555;53.248;10.336;2022-10-31T01:47:34;14.00;99.90
7028;DHT22;3555;53.248;10.336;2022-10-31T01:50:06;14.10;99.90
7028;DHT22;3555;53.248;10.336;2022-10-31T01:52:39;14.10;99.90
7028;DHT22;3555;53.248;10.336;2022-10-31T01:55:10;14.10;99.90
7028;DHT22;3555;53.248;10.336;2022-10-31T01:57:40;14.10;99.90
7028;DHT22;3555;53.248;10.336;2022-10-31T02:00:09;14.00;99.90
7028;DHT22;3555;53.248;10.336;2022-10-31T02:02:38;13.90;99.90
7028;DHT22;3555;53.248;10.336;2022-10-31T02:05:07;13.90;99.90
7028;DHT22;3555;53.248;10.336;2022-10-31T02:07:38;13.80;99.90
7028;DHT22;3555;53.248;10.336;2022-10-31T02:10:06;13.80;99.90
7028;DHT22;3555;53.248;10.336;2022-10-31T02:12:34;13.80;99.90
7028;DHT22;3555;53.248;10.336;2022-10-31T02:15:04;13.80;99.90
7028;DHT22;3555;53.248;10.336;2022-10-31T02:17:31;13.80;99.90
7028;DHT22;3555;53.248;10.336;2022-10-31T02:20:09;13.80;99.90
7028;DHT22;3555;53.248;10.336;2022-10-31T02:22:48;13.80;99.90
7028;DHT22;3555;53.248;10.336;2022-10-31T02:25:39;13.80;99.90
7028;DHT22;3555;53.248;10.336;2022-10-31T02:28:24;13.80;99.90
7028;DHT22;3555;53.248;10.336;2022-10-31T02:31:07;13.90;99.90
7028;DHT22;3555;53.248;10.336;2022-10-31T02:33:41;14.00;99.90
7028;DHT22;3555;53.248;10.336;2022-10-31T02:36:13;14.00;99.90
7028;DHT22;3555;53.248;10.336;2022-10-31T02:38:50;14.00;99.90
7028;DHT22;3555;53.248;10.336;2022-10-31T02:41:26;14.10;99.90
7028;DHT22;3555;53.248;10.336;2022-10-31T02:44:05;14.10;99.90
7028;DHT22;3555;53.248;10.336;2022-10-31T02:46:37;14.20;99.90
7028;DHT22;3555;53.248;10.336;2022-10-31T02:49:09;14.20;99.90
7028;DHT22;3555;53.248;10.336;2022-10-31T02:51:37;14.20;99.90
7028;DHT22;3555;53.248;10.336;2022-10-31T02:54:05;14.20;99.90
7028;DHT22;3555;53.248;10.336;2022-10-31T02:56:32;14.20;99.90
7028;DHT22;3555;53.248;10.336;2022-10-31T02:59:01;14.20;99.90
7028;DHT22;3555;53.248;10.336;2022-10-31T03:01:41;14.20;99.90
7028;DHT22;3555;53.248;10.336;2022-10-31T03:04:32;14.20;99.90
7028;DHT22;3555;53.248;10.336;2022-10-31T03:07:07;14.20;99.90
7028;DHT22;3555;53.248;10.336;2022-10-31T03:09:42;14.30;99.90
7028;DHT22;3555;53.248;10.336;2022-10-31T03:12:15;14.30;99.90
7028;DHT22;3555;53.248;10.336;2022-10-31T03:14:56;14.30;99.90
7028;DHT22;3555;53.248;10.336;2022-10-31T03:17:29;14.30;99.90
7028;DHT22;3555;53.248;10.336;2022-10-31T03:20:00;14.40;99.90
7028;DHT22;3555;53.248;10.336;2022-10-31T03:22:29;14.40;99.90
7028;DHT22;3555;53.248;10.336;2022-10-31T03:25:00;14.30;99.90
7028;DHT22;3555;53.248;10.336;2022-10-31T03:27:31;14.40;99.90
7028;DHT22;3555;53.248;10.336;2022-10-31T03:30:01;14.40;99.90
7028;DHT22;3555;53.248;10.336;2022-10-31T03:32:34;14.40;99.90
7028;DHT22;3555;53.248;10.336;2022-10-31T03:35:04;14.50;99.90
7028;DHT22;3555;53.248;10.336;2022-10-31T03:37:33;14.30;99.90
7028;DHT22;3555;53.248;10.336;2022-10-31T03:40:01;14.40;99.90
7028;DHT22;3555;53.248;10.336;2022-10-31T03:42:32;14.30;99.90
7028;DHT22;3555;53.248;10.336;2022-10-31T03:45:02;14.40;99.90
7028;DHT22;3555;53.248;10.336;2022-10-31T03:47:33;14.40;99.90
7028;DHT22;3555;53.248;10.336;2022-10-31T03:50:00;14.30;99.90
7028;DHT22;3555;53.248;10.336;2022-10-31T03:52:30;14.30;99.90
7028;DHT22;3555;53.248;10.336;2022-10-31T03:55:06;14.30;99.90
7028;DHT22;3555;53.248;10.336;2022-10-31T03:57:38;14.40;99.90
7028;DHT22;3555;53.248;10.336;2022-10-31T04:00:08;14.40;99.90
7028;DHT22;3555;53.248;10.336;2022-10-31T04:02:39;14.40;99.90
7028;DHT22;3555;53.248;10.336;2022-10-31T04:05:08;15.20;99.90
7028;DHT22;3555;53.248;10.336;2022-10-31T04:07:39;14.40;99.90
7028;DHT22;3555;53.248;10.336;2022-10-31T04:10:10;14.50;99.90
7028;DHT22;3555;53.248;10.336;2022-10-31T04:12:38;14.50;99.90
7028;DHT22;3555;53.248;10.336;2022-10-31T04:15:07;14.60;99.90
7028;DHT22;3555;53.248;10.336;2022-10-31T04:17:40;14.50;99.90
7028;DHT22;3555;53.248;10.336;2022-10-31T04:20:08;14.50;99.90
7028;DHT22;3555;53.248;10.336;2022-10-31T04:22:35;14.50;99.90
7028;DHT22;3555;53.248;10.336;2022-10-31T04:25:02;14.60;99.90
7028;DHT22;3555;53.248;10.336;2022-10-31T04:27:29;14.60;99.90
7028;DHT22;3555;53.248;10.336;2022-10-31T04:29:56;14.60;99.90
7028;DHT22;3555;53.248;10.336;2022-10-31T04:32:22;14.60;99.90
7028;DHT22;3555;53.248;10.336;2022-10-31T04:34:50;14.60;99.90
7028;DHT22;3555;53.248;10.336;2022-10-31T04:37:17;14.60;99.90
7028;DHT22;3555;53.248;10.336;2022-10-31T04:39:44;14.60;99.90
7028;DHT22;3555;53.248;10.336;2022-10-31T04:42:11;14.60;99.90
7028;DHT22;3555;53.248;10.336;2022-10-31T04:44:37;14.60;99.90
7028;DHT22;3555;53.248;10.336;2022-10-31T04:47:04;14.60;99.90
7028;DHT22;3555;53.248;10.336;2022-10-31T04:49:31;14.60;99.90
7028;DHT22;3555;53.248;10.336;2022-10-31T04:51:59;14.60;99.90
7028;DHT22;3555;53.248;10.336;2022-10-31T04:54:26;14.60;99.90
7028;DHT22;3555;53.248;10.336;2022-10-31T04:56:53;14.60;99.90
7028;DHT22;3555;53.248;10.336;2022-10-31T04:59:19;14.60;99.90
7028;DHT22;3555;53.248;10.336;2022-10-31T05:01:46;14.60;99.90
7028;DHT22;3555;53.248;10.336;2022-10-31T05:04:13;14.60;99.90
7028;DHT22;3555;53.248;10.336;2022-10-31T05:06:40;14.60;99.90
7028;DHT22;3555;53.248;10.336;2022-10-31T05:09:08;14.60;99.90
7028;DHT22;3555;53.248;10.336;2022-10-31T05:11:35;14.50;99.90
7028;DHT22;3555;53.248;10.336;2022-10-31T05:14:02;14.50;99.90
7028;DHT22;3555;53.248;10.336;2022-10-31T05:16:29;14.60;99.90
7028;DHT22;3555;53.248;10.336;2022-10-31T05:18:56;14.50;99.90
7028;DHT22;3555;53.248;10.336;2022-10-31T05:21:22;14.40;99.90
7028;DHT22;3555;53.248;10.336;2022-10-31T05:23:49;14.40;99.90
7028;DHT22;3555;53.248;10.336;2022-10-31T05:26:17;14.40;99.90
7028;DHT22;3555;53.248;10.336;2022-10-31T05:28:44;14.40;99.90
7028;DHT22;3555;53.248;10.336;2022-10-31T05:31:11;14.30;99.90
7028;DHT22;3555;53.248;10.336;2022-10-31T05:33:38;14.50;99.90
7028;DHT22;3555;53.248;10.336;2022-10-31T05:36:05;14.20;99.90
7028;DHT22;3555;53.248;10.336;2022-10-31T05:38:32;14.40;99.90
7028;DHT22;3555;53.248;10.336;2022-10-31T05:40:58;14.40;99.90
7028;DHT22;3555;53.248;10.336;2022-10-31T05:43:28;14.30;99.90
7028;DHT22;3555;53.248;10.336;2022-10-31T05:45:55;14.40;99.90
7028;DHT22;3555;53.248;10.336;2022-10-31T05:48:22;14.30;99.90
7028;DHT22;3555;53.248;10.336;2022-10-31T05:50:49;14.40;99.90
7028;DHT22;3555;53.248;10.336;2022-10-31T05:53:16;14.40;99.90
7028;DHT22;3555;53.248;10.336;2022-10-31T05:55:43;14.50;99.90
7028;DHT22;3555;53.248;10.336;2022-10-31T05:58:10;14.50;99.90
7028;DHT22;3555;53.248;10.336;2022-10-31T06:00:39;14.50;99.90
7028;DHT22;3555;53.248;10.336;2022-10-31T06:03:07;14.60;99.90
7028;DHT22;3555;53.248;10.336;2022-10-31T06:05:34;14.60;99.90
7028;DHT22;3555;53.248;10.336;2022-10-31T06:08:01;14.60;99.90
7028;DHT22;3555;53.248;10.336;2022-10-31T06:10:28;14.60;99.90
7028;DHT22;3555;53.248;10.336;2022-10-31T06:12:55;14.50;99.90
7028;DHT22;3555;53.248;10.336;2022-10-31T06:15:22;14.40;99.90
7028;DHT22;3555;53.248;10.336;2022-10-31T06:17:59;14.50;99.90
7028;DHT22;3555;53.248;10.336;2022-10-31T06:20:26;14.50;99.90
7028;DHT22;3555;53.248;10.336;2022-10-31T06:22:52;14.60;99.90
7028;DHT22;3555;53.248;10.336;2022-10-31T06:25:19;14.60;99.90
7028;DHT22;3555;53.248;10.336;2022-10-31T06:27:46;14.60;99.90
7028;DHT22;3555;53.248;10.336;2022-10-31T06:30:13;14.60;99.90
7028;DHT22;3555;53.248;10.336;2022-10-31T06:32:40;14.60;99.90
7028;DHT22;3555;53.248;10.336;2022-10-31T06:35:09;14.50;99.90
7028;DHT22;3555;53.248;10.336;2022-10-31T06:37:36;14.40;99.90
7028;DHT22;3555;53.248;10.336;2022-10-31T06:40:03;14.50;99.90
7028;DHT22;3555;53.248;10.336;2022-10-31T06:42:30;14.50;99.90
7028;DHT22;3555;53.248;10.336;2022-10-31T06:44:57;14.50;99.90
7028;DHT22;3555;53.248;10.336;2022-10-31T06:47:23;14.40;99.90
7028;DHT22;3555;53.248;10.336;2022-10-31T06:49:50;14.30;99.90
7028;DHT22;3555;53.248;10.336;2022-10-31T06:52:18;14.30;99.90
7028;DHT22;3555;53.248;10.336;2022-10-31T06:54:45;14.30;99.90
7028;DHT22;3555;53.248;10.336;2022-10-31T06:57:12;14.40;99.90
7028;DHT22;3555;53.248;10.336;2022-10-31T06:59:38;14.20;99.90
7028;DHT22;3555;53.248;10.336;2022-10-31T07:02:07;14.10;99.90
7028;DHT22;3555;53.248;10.336;2022-10-31T07:04:34;14.30;99.90
7028;DHT22;3555;53.248;10.336;2022-10-31T07:07:00;14.20;99.90
7028;DHT22;3555;53.248;10.336;2022-10-31T07:09:28;14.20;99.90
7028;DHT22;3555;53.248;10.336;2022-10-31T07:11:55;14.30;99.90
7028;DHT22;3555;53.248;10.336;2022-10-31T07:14:22;14.20;99.90
7028;DHT22;3555;53.248;10.336;2022-10-31T07:16:49;14.10;99.90
7028;DHT22;3555;53.248;10.336;2022-10-31T07:19:16;14.40;99.90
7028;DHT22;3555;53.248;10.336;2022-10-31T07:21:43;14.30;99.90
7028;DHT22;3555;53.248;10.336;2022-10-31T07:24:10;14.40;99.90
7028;DHT22;3555;53.248;10.336;2022-10-31T07:26:38;14.40;99.90
7028;DHT22;3555;53.248;10.336;2022-10-31T07:29:05;14.60;99.90
7028;DHT22;3555;53.248;10.336;2022-10-31T07:31:31;14.50;99.90
7028;DHT22;3555;53.248;10.336;2022-10-31T07:33:58;14.50;99.90
7028;DHT22;3555;53.248;10.336;2022-10-31T07:36:25;14.60;99.90
7028;DHT22;3555;53.248;10.336;2022-10-31T07:38:52;14.60;99.90
7028;DHT22;3555;53.248;10.336;2022-10-31T07:41:19;14.70;99.90
7028;DHT22;3555;53.248;10.336;2022-10-31T07:43:47;14.80;99.90
7028;DHT22;3555;53.248;10.336;2022-10-31T07:46:13;14.80;99.90
7028;DHT22;3555;53.248;10.336;2022-10-31T07:48:40;14.90;99.90
7028;DHT22;3555;53.248;10.336;2022-10-31T07:51:07;14.90;99.90
7028;DHT22;3555;53.248;10.336;2022-10-31T07:53:34;14.80;99.90
7028;DHT22;3555;53.248;10.336;2022-10-31T07:56:00;14.70;99.90
7028;DHT22;3555;53.248;10.336;2022-10-31T07:58:27;14.80;99.90
7028;DHT22;3555;53.248;10.336;2022-10-31T08:00:57;14.80;99.90
7028;DHT22;3555;53.248;10.336;2022-10-31T08:03:23;14.60;99.90
7028;DHT22;3555;53.248;10.336;2022-10-31T08:05:50;14.50;99.90
7028;DHT22;3555;53.248;10.336;2022-10-31T08:08:17;14.60;99.90
7028;DHT22;3555;53.248;10.336;2022-10-31T08:10:44;14.70;99.90
7028;DHT22;3555;53.248;10.336;2022-10-31T08:13:12;14.70;99.90
7028;DHT22;3555;53.248;10.336;2022-10-31T08:15:39;14.70;99.90
7028;DHT22;3555;53.248;10.336;2022-10-31T08:18:12;14.70;99.90
7028;DHT22;3555;53.248;10.336;2022-10-31T08:20:39;14.80;99.90
7028;DHT22;3555;53.248;10.336;2022-10-31T08:23:06;14.80;99.90
7028;DHT22;3555;53.248;10.336;2022-10-31T08:25:34;14.80;99.90
7028;DHT22;3555;53.248;10.336;2022-10-31T08:28:01;15.00;99.90
7028;DHT22;3555;53.248;10.336;2022-10-31T08:30:30;15.10;99.90
7028;DHT22;3555;53.248;10.336;2022-10-31T08:32:59;15.10;99.90
7028;DHT22;3555;53.248;10.336;2022-10-31T08:35:27;15.10;99.90
7028;DHT22;3555;53.248;10.336;2022-10-31T08:37:54;15.20;99.90
7028;DHT22;3555;53.248;10.336;2022-10-31T08:40:22;15.20;99.90
7028;DHT22;3555;53.248;10.336;2022-10-31T08:42:56;15.30;99.90
7028;DHT22;3555;53.248;10.336;2022-10-31T08:45:23;15.40;99.90
7028;DHT22;3555;53.248;10.336;2022-10-31T08:47:50;15.30;99.90
7028;DHT22;3555;53.248;10.336;2022-10-31T08:50:17;15.20;99.90
7028;DHT22;3555;53.248;10.336;2022-10-31T08:52:45;15.30;99.90
7028;DHT22;3555;53.248;10.336;2022-10-31T08:55:12;15.20;99.90
7028;DHT22;3555;53.248;10.336;2022-10-31T08:57:39;15.20;99.90
7028;DHT22;3555;53.248;10.336;2022-10-31T09:00:07;15.20;99.90
7028;DHT22;3555;53.248;10.336;2022-10-31T09:02:34;15.30;99.90
7028;DHT22;3555;53.248;10.336;2022-10-31T09:05:02;15.20;99.90
7028;DHT22;3555;53.248;10.336;2022-10-31T09:07:29;15.30;99.90
7028;DHT22;3555;53.248;10.336;2022-10-31T09:09:57;15.30;99.90
7028;DHT22;3555;53.248;10.336;2022-10-31T09:12:24;14.80;99.90
7028;DHT22;3555;53.248;10.336;2022-10-31T09:14:51;15.40;99.90
7028;DHT22;3555;53.248;10.336;2022-10-31T09:17:17;15.30;99.90
7028;DHT22;3555;53.248;10.336;2022-10-31T09:19:44;15.40;99.90
7028;DHT22;3555;53.248;10.336;2022-10-31T09:22:11;15.70;99.90
7028;DHT22;3555;53.248;10.336;2022-10-31T09:24:38;15.70;99.90
7028;DHT22;3555;53.248;10.336;2022-10-31T09:27:06;15.70;99.90
7028;DHT22;3555;53.248;10.336;2022-10-31T09:29:34;15.70;99.90
7028;DHT22;3555;53.248;10.336;2022-10-31T09:32:01;15.60;99.90
7028;DHT22;3555;53.248;10.336;2022-10-31T09:34:28;15.50;99.90
7028;DHT22;3555;53.248;10.336;2022-10-31T09:36:54;15.20;99.90
7028;DHT22;3555;53.248;10.336;2022-10-31T09:39:21;15.30;99.90
7028;DHT22;3555;53.248;10.336;2022-10-31T09:42:03;15.30;99.90
7028;DHT22;3555;53.248;10.336;2022-10-31T09:44:43;15.20;99.90
7028;DHT22;3555;53.248;10.336;2022-10-31T09:47:20;15.10;99.90
7028;DHT22;3555;53.248;10.336;2022-10-31T09:50:02;15.30;99.90
7028;DHT22;3555;53.248;10.336;2022-10-31T09:52:35;15.30;99.90
7028;DHT22;3555;53.248;10.336;2022-10-31T09:55:08;15.20;99.90
7028;DHT22;3555;53.248;10.336;2022-10-31T09:57:40;14.90;99.90
7028;DHT22;3555;53.248;10.336;2022-10-31T10:00:16;14.70;99.90
7028;DHT22;3555;53.248;10.336;2022-10-31T10:02:47;14.60;99.90
7028;DHT22;3555;53.248;10.336;2022-10-31T10:05:18;14.70;99.90
7028;DHT22;3555;53.248;10.336;2022-10-31T10:07:54;15.00;99.90
7028;DHT22;3555;53.248;10.336;2022-10-31T10:10:28;15.00;99.90
7028;DHT22;3555;53.248;10.336;2022-10-31T10:13:15;15.10;99.90
7028;DHT22;3555;53.248;10.336;2022-10-31T10:16:00;15.30;99.90
7028;DHT22;3555;53.248;10.336;2022-10-31T10:18:36;15.50;99.90
7028;DHT22;3555;53.248;10.336;2022-10-31T10:21:12;15.60;99.90
7028;DHT22;3555;53.248;10.336;2022-10-31T10:23:54;15.90;99.90
7028;DHT22;3555;53.248;10.336;2022-10-31T10:26:28;16.00;99.90
7028;DHT22;3555;53.248;10.336;2022-10-31T10:28:58;16.10;99.90
7028;DHT22;3555;53.248;10.336;2022-10-31T10:31:32;16.20;99.90
7028;DHT22;3555;53.248;10.336;2022-10-31T10:34:05;16.30;99.90
7028;DHT22;3555;53.248;10.336;2022-10-31T10:36:38;16.50;99.90
7028;DHT22;3555;53.248;10.336;2022-10-31T10:39:14;16.60;99.90
7028;DHT22;3555;53.248;10.336;2022-10-31T10:41:45;16.80;99.90
7028;DHT22;3555;53.248;10.336;2022-10-31T10:44:27;16.90;99.90
7028;DHT22;3555;53.248;10.336;2022-10-31T10:47:13;17.00;60.60
7028;DHT22;3555;53.248;10.336;2022-10-31T10:49:57;17.00;1.00
7028;DHT22;3555;53.248;10.336;2022-10-31T10:52:37;17.10;1.00
7028;DHT22;3555;53.248;10.336;2022-10-31T10:55:17;17.30;1.00
7028;DHT22;3555;53.248;10.336;2022-10-31T10:57:55;17.10;1.00
7028;DHT22;3555;53.248;10.336;2022-10-31T11:00:24;17.00;1.00
7028;DHT22;3555;53.248;10.336;2022-10-31T11:02:53;16.80;1.00
7028;DHT22;3555;53.248;10.336;2022-10-31T11:05:24;16.80;1.00
7028;DHT22;3555;53.248;10.336;2022-10-31T11:07:51;16.70;1.00
7028;DHT22;3555;53.248;10.336;2022-10-31T11:10:18;16.90;1.00
7028;DHT22;3555;53.248;10.336;2022-10-31T11:12:56;16.90;1.00
7028;DHT22;3555;53.248;10.336;2022-10-31T11:15:25;17.00;1.00
7028;DHT22;3555;53.248;10.336;2022-10-31T11:17:55;17.20;1.00
7028;DHT22;3555;53.248;10.336;2022-10-31T11:20:33;17.30;1.00
7028;DHT22;3555;53.248;10.336;2022-10-31T11:23:15;17.30;99.90
7028;DHT22;3555;53.248;10.336;2022-10-31T11:25:48;17.40;99.90
7028;DHT22;3555;53.248;10.336;2022-10-31T11:28:16;17.50;1.00
7028;DHT22;3555;53.248;10.336;2022-10-31T11:30:45;17.70;99.90
7028;DHT22;3555;53.248;10.336;2022-10-31T11:33:19;17.50;99.90
7028;DHT22;3555;53.248;10.336;2022-10-31T11:35:47;17.20;1.00
7028;DHT22;3555;53.248;10.336;2022-10-31T11:38:18;17.20;99.90
7028;DHT22;3555;53.248;10.336;2022-10-31T11:40:53;17.30;1.00
7028;DHT22;3555;53.248;10.336;2022-10-31T11:43:21;17.40;1.00
7028;DHT22;3555;53.248;10.336;2022-10-31T11:45:48;17.40;1.00
7028;DHT22;3555;53.248;10.336;2022-10-31T11:48:18;17.50;38.50
7028;DHT22;3555;53.248;10.336;2022-10-31T11:50:50;17.60;1.00
7028;DHT22;3555;53.248;10.336;2022-10-31T11:53:19;17.30;1.00
7028;DHT22;3555;53.248;10.336;2022-10-31T11:55:47;17.10;99.90
7028;DHT22;3555;53.248;10.336;2022-10-31T11:58:26;17.20;99.90
7028;DHT22;3555;53.248;10.336;2022-10-31T12:00:54;17.40;1.00
7028;DHT22;3555;53.248;10.336;2022-10-31T12:03:37;17.00;1.00
7028;DHT22;3555;53.248;10.336;2022-10-31T12:06:07;17.20;1.00
7028;DHT22;3555;53.248;10.336;2022-10-31T12:08:36;17.10;4.30
7028;DHT22;3555;53.248;10.336;2022-10-31T12:11:11;17.20;10.00
7028;DHT22;3555;53.248;10.336;2022-10-31T12:13:51;16.90;1.00
7028;DHT22;3555;53.248;10.336;2022-10-31T12:16:28;16.90;1.00
7028;DHT22;3555;53.248;10.336;2022-10-31T12:19:00;17.10;1.00
7028;DHT22;3555;53.248;10.336;2022-10-31T12:21:39;17.40;1.00
7028;DHT22;3555;53.248;10.336;2022-10-31T12:24:23;17.20;1.00
7028;DHT22;3555;53.248;10.336;2022-10-31T12:27:03;17.30;1.00
7028;DHT22;3555;53.248;10.336;2022-10-31T12:29:42;17.50;1.00
7028;DHT22;3555;53.248;10.336;2022-10-31T12:32:21;17.70;1.00
7028;DHT22;3555;53.248;10.336;2022-10-31T12:35:09;17.70;1.00
7028;DHT22;3555;53.248;10.336;2022-10-31T12:37:49;17.80;1.00
7028;DHT22;3555;53.248;10.336;2022-10-31T12:40:34;17.70;1.00
7028;DHT22;3555;53.248;10.336;2022-10-31T12:43:14;17.40;99.90
7028;DHT22;3555;53.248;10.336;2022-10-31T12:45:51;17.50;99.90
7028;DHT22;3555;53.248;10.336;2022-10-31T12:48:32;17.60;1.00
7028;DHT22;3555;53.248;10.336;2022-10-31T12:51:11;17.60;1.00
7028;DHT22;3555;53.248;10.336;2022-10-31T12:53:50;17.50;1.00
7028;DHT22;3555;53.248;10.336;2022-10-31T12:56:29;17.20;1.00
7028;DHT22;3555;53.248;10.336;2022-10-31T12:59:02;17.20;1.00
7028;DHT22;3555;53.248;10.336;2022-10-31T13:01:34;17.20;99.90
7028;DHT22;3555;53.248;10.336;2022-10-31T13:04:04;17.00;23.50
7028;DHT22;3555;53.248;10.336;2022-10-31T13:06:36;17.00;1.00
7028;DHT22;3555;53.248;10.336;2022-10-31T13:09:07;16.90;1.00
7028;DHT22;3555;53.248;10.336;2022-10-31T13:11:37;16.70;16.50
7028;DHT22;3555;53.248;10.336;2022-10-31T13:14:07;16.90;99.90
7028;DHT22;3555;53.248;10.336;2022-10-31T13:16:38;16.80;1.00
7028;DHT22;3555;53.248;10.336;2022-10-31T13:19:10;16.70;99.90
7028;DHT22;3555;53.248;10.336;2022-10-31T13:21:51;16.60;1.00
7028;DHT22;3555;53.248;10.336;2022-10-31T13:24:25;16.30;99.90
7028;DHT22;3555;53.248;10.336;2022-10-31T13:26:56;16.30;1.00
7028;DHT22;3555;53.248;10.336;2022-10-31T13:29:27;16.30;1.00
7028;DHT22;3555;53.248;10.336;2022-10-31T13:31:54;16.40;1.00
7028;DHT22;3555;53.248;10.336;2022-10-31T13:34:26;16.20;1.00
7028;DHT22;3555;53.248;10.336;2022-10-31T13:37:01;16.20;1.00
7028;DHT22;3555;53.248;10.336;2022-10-31T13:39:52;16.20;1.00
7028;DHT22;3555;53.248;10.336;2022-10-31T13:42:29;16.20;1.00
7028;DHT22;3555;53.248;10.336;2022-10-31T13:45:12;16.30;1.00
7028;DHT22;3555;53.248;10.336;2022-10-31T13:47:41;16.20;1.00
7028;DHT22;3555;53.248;10.336;2022-10-31T13:50:20;16.20;1.00
7028;DHT22;3555;53.248;10.336;2022-10-31T13:52:49;16.40;1.00
7028;DHT22;3555;53.248;10.336;2022-10-31T13:55:35;16.30;99.90
7028;DHT22;3555;53.248;10.336;2022-10-31T13:58:04;16.40;1.00
7028;DHT22;3555;53.248;10.336;2022-10-31T14:00:31;16.30;1.00
7028;DHT22;3555;53.248;10.336;2022-10-31T14:03:00;16.30;1.00
7028;DHT22;3555;53.248;10.336;2022-10-31T14:05:29;16.30;1.00
7028;DHT22;3555;53.248;10.336;2022-10-31T14:08:00;16.20;1.00
7028;DHT22;3555;53.248;10.336;2022-10-31T14:10:29;16.20;1.00
7028;DHT22;3555;53.248;10.336;2022-10-31T14:13:04;16.20;1.00
7028;DHT22;3555;53.248;10.336;2022-10-31T14:15:32;16.10;1.00
7028;DHT22;3555;53.248;10.336;2022-10-31T14:18:01;16.10;1.00
7028;DHT22;3555;53.248;10.336;2022-10-31T14:20:34;16.10;1.00
7028;DHT22;3555;53.248;10.336;2022-10-31T14:23:39;16.00;20.30
7028;DHT22;3555;53.248;10.336;2022-10-31T14:26:31;16.00;79.50
7028;DHT22;3555;53.248;10.336;2022-10-31T14:28:59;16.00;49.00
7028;DHT22;3555;53.248;10.336;2022-10-31T14:31:31;15.70;99.90
7028;DHT22;3555;53.248;10.336;2022-10-31T14:34:01;15.60;99.90
7028;DHT22;3555;53.248;10.336;2022-10-31T14:36:38;15.40;99.90
7028;DHT22;3555;53.248;10.336;2022-10-31T14:39:13;15.40;99.90
7028;DHT22;3555;53.248;10.336;2022-10-31T14:41:53;15.40;99.90
7028;DHT22;3555;53.248;10.336;2022-10-31T14:44:51;15.40;99.90
7028;DHT22;3555;53.248;10.336;2022-10-31T14:47:29;15.50;99.90
7028;DHT22;3555;53.248;10.336;2022-10-31T14:50:20;15.50;99.90
7028;DHT22;3555;53.248;10.336;2022-10-31T14:52:51;15.40;99.90
7028;DHT22;3555;53.248;10.336;2022-10-31T14:55:20;15.20;99.90
7028;DHT22;3555;53.248;10.336;2022-10-31T14:57:50;15.10;99.90
7028;DHT22;3555;53.248;10.336;2022-10-31T15:00:20;15.20;99.90
7028;DHT22;3555;53.248;10.336;2022-10-31T15:02:55;15.00;99.90
7028;DHT22;3555;53.248;10.336;2022-10-31T15:05:23;15.00;99.90
7028;DHT22;3555;53.248;10.336;2022-10-31T15:07:51;15.10;99.90
7028;DHT22;3555;53.248;10.336;2022-10-31T15:10:24;15.20;99.90
7028;DHT22;3555;53.248;10.336;2022-10-31T15:12:51;15.30;99.90
7028;DHT22;3555;53.248;10.336;2022-10-31T15:15:20;15.40;99.90
7028;DHT22;3555;53.248;10.336;2022-10-31T15:17:49;15.20;99.90
7028;DHT22;3555;53.248;10.336;2022-10-31T15:20:19;15.10;99.90
7028;DHT22;3555;53.248;10.336;2022-10-31T15:22:47;15.10;99.90
7028;DHT22;3555;53.248;10.336;2022-10-31T15:25:18;15.10;99.90
7028;DHT22;3555;53.248;10.336;2022-10-31T15:27:47;14.80;99.90
7028;DHT22;3555;53.248;10.336;2022-10-31T15:30:18;14.70;99.90
7028;DHT22;3555;53.248;10.336;2022-10-31T15:32:46;14.60;99.90
7028;DHT22;3555;53.248;10.336;2022-10-31T15:35:21;14.50;99.90
7028;DHT22;3555;53.248;10.336;2022-10-31T15:37:48;14.40;99.90
7028;DHT22;3555;53.248;10.336;2022-10-31T15:40:17;14.40;99.90
7028;DHT22;3555;53.248;10.336;2022-10-31T15:42:50;14.20;99.90
7028;DHT22;3555;53.248;10.336;2022-10-31T15:45:19;14.20;99.90
7028;DHT22;3555;53.248;10.336;2022-10-31T15:47:53;14.30;99.90
7028;DHT22;3555;53.248;10.336;2022-10-31T15:50:27;14.30;99.90
7028;DHT22;3555;53.248;10.336;2022-10-31T15:52:54;14.40;99.90
7028;DHT22;3555;53.248;10.336;2022-10-31T15:55:24;14.60;99.90
7028;DHT22;3555;53.248;10.336;2022-10-31T15:57:56;14.40;99.90
7028;DHT22;3555;53.248;10.336;2022-10-31T16:00:26;14.30;99.90
7028;DHT22;3555;53.248;10.336;2022-10-31T16:03:04;14.30;99.90
7028;DHT22;3555;53.248;10.336;2022-10-31T16:05:37;14.40;99.90
7028;DHT22;3555;53.248;10.336;2022-10-31T16:08:04;14.30;99.90
7028;DHT22;3555;53.248;10.336;2022-10-31T16:10:48;14.30;99.90
7028;DHT22;3555;53.248;10.336;2022-10-31T16:13:17;14.10;99.90